sensor_id;sensor_type;location;lat;lon;timestamp;temperature;humidity
51765;DHT22;37835;53.256;6.456;2023-02-05T00:02:17;4.10;99.90
51765;DHT22;37835;53.256;6.456;2023-02-05T00:04:42;4.10;99.90
51765;DHT22;37835;53.256;6.456;2023-02-05T00:07:08;4.10;99.90
51765;DHT22;37835;53.256;6.456;2023-02-05T00:09:33;4.10;99.90
51765;DHT22;37835;53.256;6.456;2023-02-05T00:12:00;4.10;99.90
51765;DHT22;37835;53.256;6.456;2023-02-05T00:14:26;5.10;99.90
51765;DHT22;37835;53.256;6.456;2023-02-05T00:16:52;4.10;99.90
51765;DHT22;37835;53.256;6.456;2023-02-05T00:19:17;4.10;99.90
51765;DHT22;37835;53.256;6.456;2023-02-05T00:21:43;4.10;99.90
51765;DHT22;37835;53.256;6.456;2023-02-05T00:24:09;4.10;99.90
51765;DHT22;37835;53.256;6.456;2023-02-05T00:26:34;4.20;99.90
51765;DHT22;37835;53.256;6.456;2023-02-05T00:29:00;4.20;99.90
51765;DHT22;37835;53.256;6.456;2023-02-05T00:31:25;4.20;99.90
51765;DHT22;37835;53.256;6.456;2023-02-05T00:33:51;4.20;99.90
51765;DHT22;37835;53.256;6.456;2023-02-05T00:36:17;4.20;99.90
51765;DHT22;37835;53.256;6.456;2023-02-05T00:38:43;4.20;99.90
51765;DHT22;37835;53.256;6.456;2023-02-05T00:41:09;4.20;99.90
51765;DHT22;37835;53.256;6.456;2023-02-05T00:43:35;4.30;99.90
51765;DHT22;37835;53.256;6.456;2023-02-05T00:46:00;4.30;99.90
51765;DHT22;37835;53.256;6.456;2023-02-05T00:48:26;4.30;99.90
51765;DHT22;37835;53.256;6.456;2023-02-05T00:50:52;4.30;99.90
51765;DHT22;37835;53.256;6.456;2023-02-05T00:53:18;4.30;99.90
51765;DHT22;37835;53.256;6.456;2023-02-05T00:55:43;4.30;99.90
51765;DHT22;37835;53.256;6.456;2023-02-05T00:58:09;4.30;99.90
51765;DHT22;37835;53.256;6.456;2023-02-05T01:00:35;4.40;99.90
51765;DHT22;37835;53.256;6.456;2023-02-05T01:03:00;4.40;99.90
51765;DHT22;37835;53.256;6.456;2023-02-05T01:05:26;4.40;99.90
51765;DHT22;37835;53.256;6.456;2023-02-05T01:07:52;4.40;99.90
51765;DHT22;37835;53.256;6.456;2023-02-05T01:10:18;4.40;99.90
51765;DHT22;37835;53.256;6.456;2023-02-05T01:12:43;4.40;99.90
51765;DHT22;37835;53.256;6.456;2023-02-05T01:15:10;4.40;99.90
51765;DHT22;37835;53.256;6.456;2023-02-05T01:17:36;4.40;99.90
51765;DHT22;37835;53.256;6.456;2023-02-05T01:20:01;4.40;99.90
51765;DHT22;37835;53.256;6.456;2023-02-05T01:22:27;4.40;99.90
51765;DHT22;37835;53.256;6.456;2023-02-05T01:24:52;4.40;99.90
51765;DHT22;37835;53.256;6.456;2023-02-05T01:27:18;4.50;99.90
51765;DHT22;37835;53.256;6.456;2023-02-05T01:29:43;4.50;99.90
51765;DHT22;37835;53.256;6.456;2023-02-05T01:32:09;4.50;99.90
51765;DHT22;37835;53.256;6.456;2023-02-05T01:34:34;4.50;99.90
51765;DHT22;37835;53.256;6.456;2023-02-05T01:37:00;4.50;99.90
51765;DHT22;37835;53.256;6.456;2023-02-05T01:39:25;3.20;99.90
51765;DHT22;37835;53.256;6.456;2023-02-05T01:41:51;4.50;99.90
51765;DHT22;37835;53.256;6.456;2023-02-05T01:44:17;4.50;99.90
51765;DHT22;37835;53.256;6.456;2023-02-05T01:46:44;4.50;99.90
51765;DHT22;37835;53.256;6.456;2023-02-05T01:52:06;4.50;99.90
51765;DHT22;37835;53.256;6.456;2023-02-05T01:54:34;4.60;99.90
51765;DHT22;37835;53.256;6.456;2023-02-05T01:57:05;4.60;99.90
51765;DHT22;37835;53.256;6.456;2023-02-05T01:59:32;4.60;99.90
51765;DHT22;37835;53.256;6.456;2023-02-05T02:01:59;4.60;99.90
51765;DHT22;37835;53.256;6.456;2023-02-05T02:04:37;4.60;99.90
51765;DHT22;37835;53.256;6.456;2023-02-05T02:07:03;4.50;99.90
51765;DHT22;37835;53.256;6.456;2023-02-05T02:09:29;4.60;99.90
51765;DHT22;37835;53.256;6.456;2023-02-05T02:11:55;4.60;99.90
51765;DHT22;37835;53.256;6.456;2023-02-05T02:14:21;4.60;99.90
51765;DHT22;37835;53.256;6.456;2023-02-05T02:16:48;4.70;99.90
51765;DHT22;37835;53.256;6.456;2023-02-05T02:19:17;4.60;99.90
51765;DHT22;37835;53.256;6.456;2023-02-05T02:24:42;4.70;99.90
51765;DHT22;37835;53.256;6.456;2023-02-05T02:32:28;4.70;99.90
51765;DHT22;37835;53.256;6.456;2023-02-05T02:35:00;4.80;99.90
51765;DHT22;37835;53.256;6.456;2023-02-05T02:37:33;4.80;99.90
51765;DHT22;37835;53.256;6.456;2023-02-05T02:42:31;4.80;99.90
51765;DHT22;37835;53.256;6.456;2023-02-05T02:45:01;4.80;99.90
51765;DHT22;37835;53.256;6.456;2023-02-05T02:47:28;4.80;99.90
51765;DHT22;37835;53.256;6.456;2023-02-05T02:49:59;4.80;99.90
51765;DHT22;37835;53.256;6.456;2023-02-05T02:52:26;4.80;99.90
51765;DHT22;37835;53.256;6.456;2023-02-05T02:54:55;4.80;99.90
51765;DHT22;37835;53.256;6.456;2023-02-05T02:57:22;4.80;99.90
51765;DHT22;37835;53.256;6.456;2023-02-05T02:59:48;4.80;99.90
51765;DHT22;37835;53.256;6.456;2023-02-05T03:02:15;4.80;99.90
51765;DHT22;37835;53.256;6.456;2023-02-05T03:04:51;4.80;99.90
51765;DHT22;37835;53.256;6.456;2023-02-05T03:07:18;4.80;99.90
51765;DHT22;37835;53.256;6.456;2023-02-05T03:09:46;4.90;99.90
51765;DHT22;37835;53.256;6.456;2023-02-05T03:12:14;4.90;99.90
51765;DHT22;37835;53.256;6.456;2023-02-05T03:14:39;4.90;99.90
51765;DHT22;37835;53.256;6.456;2023-02-05T03:17:05;4.90;99.90
51765;DHT22;37835;53.256;6.456;2023-02-05T03:19:30;4.90;99.90
51765;DHT22;37835;53.256;6.456;2023-02-05T03:21:58;5.00;99.90
51765;DHT22;37835;53.256;6.456;2023-02-05T03:24:25;5.00;99.90
51765;DHT22;37835;53.256;6.456;2023-02-05T03:26:50;5.00;99.90
51765;DHT22;37835;53.256;6.456;2023-02-05T03:29:17;5.30;99.90
51765;DHT22;37835;53.256;6.456;2023-02-05T03:37:02;5.10;99.90
51765;DHT22;37835;53.256;6.456;2023-02-05T03:44:44;5.20;99.90
51765;DHT22;37835;53.256;6.456;2023-02-05T03:49:52;5.20;99.90
51765;DHT22;37835;53.256;6.456;2023-02-05T03:52:41;5.20;99.90
51765;DHT22;37835;53.256;6.456;2023-02-05T03:55:10;5.20;99.90
51765;DHT22;37835;53.256;6.456;2023-02-05T03:57:48;5.20;99.90
51765;DHT22;37835;53.256;6.456;2023-02-05T04:00:15;5.30;99.90
51765;DHT22;37835;53.256;6.456;2023-02-05T04:02:41;5.30;99.90
51765;DHT22;37835;53.256;6.456;2023-02-05T04:05:06;5.30;99.90
51765;DHT22;37835;53.256;6.456;2023-02-05T04:07:32;5.30;99.90
51765;DHT22;37835;53.256;6.456;2023-02-05T04:09:57;5.30;99.90
51765;DHT22;37835;53.256;6.456;2023-02-05T04:12:23;5.30;99.90
51765;DHT22;37835;53.256;6.456;2023-02-05T04:14:48;5.40;99.90
51765;DHT22;37835;53.256;6.456;2023-02-05T04:17:14;5.40;99.90
51765;DHT22;37835;53.256;6.456;2023-02-05T04:19:39;5.40;99.90
51765;DHT22;37835;53.256;6.456;2023-02-05T04:22:05;5.40;99.90
51765;DHT22;37835;53.256;6.456;2023-02-05T04:24:31;5.40;99.90
51765;DHT22;37835;53.256;6.456;2023-02-05T04:26:56;5.40;99.90
51765;DHT22;37835;53.256;6.456;2023-02-05T04:29:22;5.50;99.90
51765;DHT22;37835;53.256;6.456;2023-02-05T04:31:47;5.50;99.90
51765;DHT22;37835;53.256;6.456;2023-02-05T04:34:13;5.50;99.90
51765;DHT22;37835;53.256;6.456;2023-02-05T04:36:38;5.50;99.90
51765;DHT22;37835;53.256;6.456;2023-02-05T04:39:04;5.50;99.90
51765;DHT22;37835;53.256;6.456;2023-02-05T04:41:29;5.50;99.90
51765;DHT22;37835;53.256;6.456;2023-02-05T04:43:55;5.60;99.90
51765;DHT22;37835;53.256;6.456;2023-02-05T04:46:20;5.60;99.90
51765;DHT22;37835;53.256;6.456;2023-02-05T04:48:46;5.60;99.90
51765;DHT22;37835;53.256;6.456;2023-02-05T04:51:12;5.60;99.90
51765;DHT22;37835;53.256;6.456;2023-02-05T04:53:38;5.60;99.90
51765;DHT22;37835;53.256;6.456;2023-02-05T04:56:07;5.50;99.90
51765;DHT22;37835;53.256;6.456;2023-02-05T04:58:33;5.70;99.90
51765;DHT22;37835;53.256;6.456;2023-02-05T05:00:58;5.70;99.90
51765;DHT22;37835;53.256;6.456;2023-02-05T05:03:24;5.70;99.90
51765;DHT22;37835;53.256;6.456;2023-02-05T05:05:49;5.90;99.90
51765;DHT22;37835;53.256;6.456;2023-02-05T05:08:15;5.80;99.90
51765;DHT22;37835;53.256;6.456;2023-02-05T05:10:40;5.80;99.90
51765;DHT22;37835;53.256;6.456;2023-02-05T05:13:06;5.80;99.90
51765;DHT22;37835;53.256;6.456;2023-02-05T05:15:31;5.80;99.90
51765;DHT22;37835;53.256;6.456;2023-02-05T05:17:57;5.80;99.90
51765;DHT22;37835;53.256;6.456;2023-02-05T05:20:22;5.80;99.90
51765;DHT22;37835;53.256;6.456;2023-02-05T05:22:48;5.90;99.90
51765;DHT22;37835;53.256;6.456;2023-02-05T05:25:13;5.90;99.90
51765;DHT22;37835;53.256;6.456;2023-02-05T05:27:39;5.90;99.90
51765;DHT22;37835;53.256;6.456;2023-02-05T05:30:04;5.90;99.90
51765;DHT22;37835;53.256;6.456;2023-02-05T05:32:30;6.10;99.90
51765;DHT22;37835;53.256;6.456;2023-02-05T05:34:55;5.90;99.90
51765;DHT22;37835;53.256;6.456;2023-02-05T05:37:21;5.90;99.90
51765;DHT22;37835;53.256;6.456;2023-02-05T05:39:47;5.90;99.90
51765;DHT22;37835;53.256;6.456;2023-02-05T05:42:31;5.90;99.90
51765;DHT22;37835;53.256;6.456;2023-02-05T05:45:15;5.90;99.90
51765;DHT22;37835;53.256;6.456;2023-02-05T05:47:41;5.80;99.90
51765;DHT22;37835;53.256;6.456;2023-02-05T05:50:06;5.80;99.90
51765;DHT22;37835;53.256;6.456;2023-02-05T05:52:32;5.80;99.90
51765;DHT22;37835;53.256;6.456;2023-02-05T05:54:58;6.10;99.90
51765;DHT22;37835;53.256;6.456;2023-02-05T05:57:23;5.70;99.90
51765;DHT22;37835;53.256;6.456;2023-02-05T05:59:50;5.60;99.90
51765;DHT22;37835;53.256;6.456;2023-02-05T06:02:15;5.60;99.90
51765;DHT22;37835;53.256;6.456;2023-02-05T06:04:41;5.60;99.90
51765;DHT22;37835;53.256;6.456;2023-02-05T06:07:06;5.60;99.90
51765;DHT22;37835;53.256;6.456;2023-02-05T06:09:32;5.50;99.90
51765;DHT22;37835;53.256;6.456;2023-02-05T06:11:57;5.50;99.90
51765;DHT22;37835;53.256;6.456;2023-02-05T06:14:23;5.50;99.90
51765;DHT22;37835;53.256;6.456;2023-02-05T06:16:48;5.50;99.90
51765;DHT22;37835;53.256;6.456;2023-02-05T06:19:13;5.50;99.90
51765;DHT22;37835;53.256;6.456;2023-02-05T06:21:39;6.60;99.90
51765;DHT22;37835;53.256;6.456;2023-02-05T06:24:04;5.50;99.90
51765;DHT22;37835;53.256;6.456;2023-02-05T06:26:30;5.50;99.90
51765;DHT22;37835;53.256;6.456;2023-02-05T06:28:55;5.50;99.90
51765;DHT22;37835;53.256;6.456;2023-02-05T06:31:22;5.50;99.90
51765;DHT22;37835;53.256;6.456;2023-02-05T06:33:47;5.50;99.90
51765;DHT22;37835;53.256;6.456;2023-02-05T06:36:13;5.60;99.90
51765;DHT22;37835;53.256;6.456;2023-02-05T06:38:38;7.50;99.90
51765;DHT22;37835;53.256;6.456;2023-02-05T06:41:04;5.60;99.90
51765;DHT22;37835;53.256;6.456;2023-02-05T06:43:29;5.60;99.90
51765;DHT22;37835;53.256;6.456;2023-02-05T06:45:55;5.70;99.90
51765;DHT22;37835;53.256;6.456;2023-02-05T06:48:20;5.70;99.90
51765;DHT22;37835;53.256;6.456;2023-02-05T06:50:46;5.70;99.90
51765;DHT22;37835;53.256;6.456;2023-02-05T06:53:11;5.70;99.90
51765;DHT22;37835;53.256;6.456;2023-02-05T06:55:37;5.70;99.90
51765;DHT22;37835;53.256;6.456;2023-02-05T06:58:03;5.70;99.90
51765;DHT22;37835;53.256;6.456;2023-02-05T07:00:28;5.60;99.90
51765;DHT22;37835;53.256;6.456;2023-02-05T07:02:53;5.70;99.90
51765;DHT22;37835;53.256;6.456;2023-02-05T07:05:19;5.70;99.90
51765;DHT22;37835;53.256;6.456;2023-02-05T07:07:45;5.70;99.90
51765;DHT22;37835;53.256;6.456;2023-02-05T07:10:10;5.60;99.90
51765;DHT22;37835;53.256;6.456;2023-02-05T07:12:36;5.70;99.90
51765;DHT22;37835;53.256;6.456;2023-02-05T07:15:01;5.70;99.90
51765;DHT22;37835;53.256;6.456;2023-02-05T07:17:27;5.70;99.90
51765;DHT22;37835;53.256;6.456;2023-02-05T07:19:52;5.70;99.90
51765;DHT22;37835;53.256;6.456;2023-02-05T07:22:18;5.70;99.90
51765;DHT22;37835;53.256;6.456;2023-02-05T07:24:43;5.70;99.90
51765;DHT22;37835;53.256;6.456;2023-02-05T07:27:09;5.70;99.90
51765;DHT22;37835;53.256;6.456;2023-02-05T07:29:34;5.70;99.90
51765;DHT22;37835;53.256;6.456;2023-02-05T07:32:00;5.80;99.90
51765;DHT22;37835;53.256;6.456;2023-02-05T07:34:25;5.80;99.90
51765;DHT22;37835;53.256;6.456;2023-02-05T07:36:51;5.80;99.90
51765;DHT22;37835;53.256;6.456;2023-02-05T07:39:17;5.80;99.90
51765;DHT22;37835;53.256;6.456;2023-02-05T07:41:43;5.80;99.90
51765;DHT22;37835;53.256;6.456;2023-02-05T07:44:08;5.70;99.90
51765;DHT22;37835;53.256;6.456;2023-02-05T07:46:34;5.80;99.90
51765;DHT22;37835;53.256;6.456;2023-02-05T07:48:59;5.80;99.90
51765;DHT22;37835;53.256;6.456;2023-02-05T07:51:25;5.80;99.90
51765;DHT22;37835;53.256;6.456;2023-02-05T07:53:50;5.80;99.90
51765;DHT22;37835;53.256;6.456;2023-02-05T07:56:16;5.80;99.90
51765;DHT22;37835;53.256;6.456;2023-02-05T07:58:44;5.80;99.90
51765;DHT22;37835;53.256;6.456;2023-02-05T08:01:10;5.80;99.90
51765;DHT22;37835;53.256;6.456;2023-02-05T08:03:35;5.90;99.90
51765;DHT22;37835;53.256;6.456;2023-02-05T08:06:04;5.90;99.90
51765;DHT22;37835;53.256;6.456;2023-02-05T08:08:30;5.90;99.90
51765;DHT22;37835;53.256;6.456;2023-02-05T08:10:59;5.90;99.90
51765;DHT22;37835;53.256;6.456;2023-02-05T08:13:25;5.90;99.90
51765;DHT22;37835;53.256;6.456;2023-02-05T08:15:51;5.90;99.90
51765;DHT22;37835;53.256;6.456;2023-02-05T08:18:16;5.90;99.90
51765;DHT22;37835;53.256;6.456;2023-02-05T08:20:42;5.90;99.90
51765;DHT22;37835;53.256;6.456;2023-02-05T08:23:08;5.90;99.90
51765;DHT22;37835;53.256;6.456;2023-02-05T08:25:33;5.90;99.90
51765;DHT22;37835;53.256;6.456;2023-02-05T08:27:59;5.90;99.90
51765;DHT22;37835;53.256;6.456;2023-02-05T08:30:24;5.90;99.90
51765;DHT22;37835;53.256;6.456;2023-02-05T08:32:50;6.00;99.90
51765;DHT22;37835;53.256;6.456;2023-02-05T08:35:16;5.90;99.90
51765;DHT22;37835;53.256;6.456;2023-02-05T08:37:41;6.00;99.90
51765;DHT22;37835;53.256;6.456;2023-02-05T08:40:07;6.00;99.90
51765;DHT22;37835;53.256;6.456;2023-02-05T08:42:33;6.00;99.90
51765;DHT22;37835;53.256;6.456;2023-02-05T08:44:59;6.10;99.90
51765;DHT22;37835;53.256;6.456;2023-02-05T08:47:25;6.20;99.90
51765;DHT22;37835;53.256;6.456;2023-02-05T08:49:50;6.20;99.90
51765;DHT22;37835;53.256;6.456;2023-02-05T08:52:16;6.30;99.90
51765;DHT22;37835;53.256;6.456;2023-02-05T08:54:41;6.30;99.90
51765;DHT22;37835;53.256;6.456;2023-02-05T08:57:07;6.30;99.90
51765;DHT22;37835;53.256;6.456;2023-02-05T08:59:33;6.30;99.90
51765;DHT22;37835;53.256;6.456;2023-02-05T09:01:59;6.30;99.90
51765;DHT22;37835;53.256;6.456;2023-02-05T09:04:25;6.40;99.90
51765;DHT22;37835;53.256;6.456;2023-02-05T09:06:50;6.40;99.90
51765;DHT22;37835;53.256;6.456;2023-02-05T09:09:16;6.50;99.90
51765;DHT22;37835;53.256;6.456;2023-02-05T09:11:42;6.40;99.90
51765;DHT22;37835;53.256;6.456;2023-02-05T09:14:07;6.40;99.90
51765;DHT22;37835;53.256;6.456;2023-02-05T09:16:33;6.50;99.90
51765;DHT22;37835;53.256;6.456;2023-02-05T09:18:59;6.50;99.90
51765;DHT22;37835;53.256;6.456;2023-02-05T09:21:25;6.50;99.90
51765;DHT22;37835;53.256;6.456;2023-02-05T09:23:51;6.50;99.90
51765;DHT22;37835;53.256;6.456;2023-02-05T09:26:18;6.50;99.90
51765;DHT22;37835;53.256;6.456;2023-02-05T09:28:43;6.50;99.90
51765;DHT22;37835;53.256;6.456;2023-02-05T09:31:11;6.50;99.90
51765;DHT22;37835;53.256;6.456;2023-02-05T09:33:37;6.60;99.90
51765;DHT22;37835;53.256;6.456;2023-02-05T09:36:10;6.60;99.90
51765;DHT22;37835;53.256;6.456;2023-02-05T09:38:36;6.60;99.90
51765;DHT22;37835;53.256;6.456;2023-02-05T09:43:43;6.60;99.90
51765;DHT22;37835;53.256;6.456;2023-02-05T09:46:33;6.60;99.90
51765;DHT22;37835;53.256;6.456;2023-02-05T09:51:34;6.60;99.90
51765;DHT22;37835;53.256;6.456;2023-02-05T09:54:12;6.60;99.90
51765;DHT22;37835;53.256;6.456;2023-02-05T09:56:39;6.60;99.90
51765;DHT22;37835;53.256;6.456;2023-02-05T09:59:05;6.60;99.90
51765;DHT22;37835;53.256;6.456;2023-02-05T10:01:36;6.70;99.90
51765;DHT22;37835;53.256;6.456;2023-02-05T10:04:04;6.70;99.90
51765;DHT22;37835;53.256;6.456;2023-02-05T10:17:01;6.90;99.90
51765;DHT22;37835;53.256;6.456;2023-02-05T10:19:42;6.90;99.90
51765;DHT22;37835;53.256;6.456;2023-02-05T10:24:44;6.70;99.90
51765;DHT22;37835;53.256;6.456;2023-02-05T10:27:21;6.70;99.90
51765;DHT22;37835;53.256;6.456;2023-02-05T10:30:00;6.60;99.90
51765;DHT22;37835;53.256;6.456;2023-02-05T10:32:31;6.60;99.90
51765;DHT22;37835;53.256;6.456;2023-02-05T10:35:00;6.60;99.90
51765;DHT22;37835;53.256;6.456;2023-02-05T10:37:32;6.60;99.90
51765;DHT22;37835;53.256;6.456;2023-02-05T10:39:59;6.60;99.90
51765;DHT22;37835;53.256;6.456;2023-02-05T10:42:27;7.80;99.90
51765;DHT22;37835;53.256;6.456;2023-02-05T10:45:15;7.10;99.90
51765;DHT22;37835;53.256;6.456;2023-02-05T10:47:46;6.80;99.90
51765;DHT22;37835;53.256;6.456;2023-02-05T10:52:38;6.90;99.90
51765;DHT22;37835;53.256;6.456;2023-02-05T10:55:03;6.90;99.90
51765;DHT22;37835;53.256;6.456;2023-02-05T10:57:30;6.90;99.90
51765;DHT22;37835;53.256;6.456;2023-02-05T10:59:58;7.00;99.90
51765;DHT22;37835;53.256;6.456;2023-02-05T11:02:39;7.90;99.90
51765;DHT22;37835;53.256;6.456;2023-02-05T11:05:07;7.00;99.90
51765;DHT22;37835;53.256;6.456;2023-02-05T11:07:44;7.00;99.90
51765;DHT22;37835;53.256;6.456;2023-02-05T11:10:24;7.10;99.90
51765;DHT22;37835;53.256;6.456;2023-02-05T11:12:51;7.20;99.90
51765;DHT22;37835;53.256;6.456;2023-02-05T11:15:18;7.30;99.90
51765;DHT22;37835;53.256;6.456;2023-02-05T11:17:48;7.40;99.90
51765;DHT22;37835;53.256;6.456;2023-02-05T11:22:40;7.60;99.90
51765;DHT22;37835;53.256;6.456;2023-02-05T11:25:14;7.70;99.90
51765;DHT22;37835;53.256;6.456;2023-02-05T11:27:47;7.70;99.90
51765;DHT22;37835;53.256;6.456;2023-02-05T11:30:24;7.80;99.90
51765;DHT22;37835;53.256;6.456;2023-02-05T11:32:50;7.90;99.90
51765;DHT22;37835;53.256;6.456;2023-02-05T11:35:20;8.00;99.90
51765;DHT22;37835;53.256;6.456;2023-02-05T11:38:08;8.10;99.90
51765;DHT22;37835;53.256;6.456;2023-02-05T11:40:32;8.10;99.90
51765;DHT22;37835;53.256;6.456;2023-02-05T11:43:02;8.20;99.90
51765;DHT22;37835;53.256;6.456;2023-02-05T11:45:29;8.20;99.90
51765;DHT22;37835;53.256;6.456;2023-02-05T11:47:55;8.20;99.90
51765;DHT22;37835;53.256;6.456;2023-02-05T11:50:25;8.30;99.90
51765;DHT22;37835;53.256;6.456;2023-02-05T11:52:51;8.30;99.90
51765;DHT22;37835;53.256;6.456;2023-02-05T11:55:24;8.40;99.90
51765;DHT22;37835;53.256;6.456;2023-02-05T11:57:58;8.40;99.90
51765;DHT22;37835;53.256;6.456;2023-02-05T12:00:24;8.40;99.90
51765;DHT22;37835;53.256;6.456;2023-02-05T12:02:50;8.40;99.90
51765;DHT22;37835;53.256;6.456;2023-02-05T12:05:28;8.40;99.90
51765;DHT22;37835;53.256;6.456;2023-02-05T12:07:57;8.50;99.90
51765;DHT22;37835;53.256;6.456;2023-02-05T12:10:30;8.50;99.90
51765;DHT22;37835;53.256;6.456;2023-02-05T12:13:05;8.50;99.90
51765;DHT22;37835;53.256;6.456;2023-02-05T12:15:36;8.50;99.90
51765;DHT22;37835;53.256;6.456;2023-02-05T12:18:08;8.50;99.90
51765;DHT22;37835;53.256;6.456;2023-02-05T12:20:43;8.60;99.90
51765;DHT22;37835;53.256;6.456;2023-02-05T12:25:39;8.60;99.90
51765;DHT22;37835;53.256;6.456;2023-02-05T12:33:11;8.70;99.90
51765;DHT22;37835;53.256;6.456;2023-02-05T12:35:47;8.60;99.90
51765;DHT22;37835;53.256;6.456;2023-02-05T12:43:41;8.70;99.90
51765;DHT22;37835;53.256;6.456;2023-02-05T12:49:23;8.70;99.90
51765;DHT22;37835;53.256;6.456;2023-02-05T12:51:55;8.70;99.90
51765;DHT22;37835;53.256;6.456;2023-02-05T12:57:04;8.70;99.90
51765;DHT22;37835;53.256;6.456;2023-02-05T13:04:51;8.70;99.90
51765;DHT22;37835;53.256;6.456;2023-02-05T13:10:06;8.80;99.90
51765;DHT22;37835;53.256;6.456;2023-02-05T13:12:38;8.70;99.90
51765;DHT22;37835;53.256;6.456;2023-02-05T13:15:18;8.70;99.90
51765;DHT22;37835;53.256;6.456;2023-02-05T13:17:56;8.70;99.90
51765;DHT22;37835;53.256;6.456;2023-02-05T13:20:24;8.70;99.90
51765;DHT22;37835;53.256;6.456;2023-02-05T13:23:11;8.70;99.90
51765;DHT22;37835;53.256;6.456;2023-02-05T13:25:55;8.70;99.90
51765;DHT22;37835;53.256;6.456;2023-02-05T13:28:34;8.70;99.90
51765;DHT22;37835;53.256;6.456;2023-02-05T13:31:21;10.80;99.90
51765;DHT22;37835;53.256;6.456;2023-02-05T13:33:48;8.60;99.90
51765;DHT22;37835;53.256;6.456;2023-02-05T13:44:01;8.40;99.90
51765;DHT22;37835;53.256;6.456;2023-02-05T13:46:41;8.60;99.90
51765;DHT22;37835;53.256;6.456;2023-02-05T13:49:16;8.60;99.90
51765;DHT22;37835;53.256;6.456;2023-02-05T14:00:02;8.60;99.90
51765;DHT22;37835;53.256;6.456;2023-02-05T14:02:39;8.60;99.90
51765;DHT22;37835;53.256;6.456;2023-02-05T14:05:06;8.60;99.90
51765;DHT22;37835;53.256;6.456;2023-02-05T14:07:33;8.60;99.90
51765;DHT22;37835;53.256;6.456;2023-02-05T14:09:59;8.50;99.90
51765;DHT22;37835;53.256;6.456;2023-02-05T14:22:49;8.30;99.90
51765;DHT22;37835;53.256;6.456;2023-02-05T14:27:59;8.30;99.90
51765;DHT22;37835;53.256;6.456;2023-02-05T14:33:00;8.20;99.90
51765;DHT22;37835;53.256;6.456;2023-02-05T14:35:27;8.20;99.90
51765;DHT22;37835;53.256;6.456;2023-02-05T14:37:56;8.20;99.90
51765;DHT22;37835;53.256;6.456;2023-02-05T14:40:25;8.10;99.90
51765;DHT22;37835;53.256;6.456;2023-02-05T14:42:52;8.10;99.90
51765;DHT22;37835;53.256;6.456;2023-02-05T14:45:19;8.10;99.90
51765;DHT22;37835;53.256;6.456;2023-02-05T14:47:45;8.10;99.90
51765;DHT22;37835;53.256;6.456;2023-02-05T14:50:21;8.00;99.90
51765;DHT22;37835;53.256;6.456;2023-02-05T14:52:49;8.00;99.90
51765;DHT22;37835;53.256;6.456;2023-02-05T14:55:20;8.00;99.90
51765;DHT22;37835;53.256;6.456;2023-02-05T14:57:53;7.90;99.90
51765;DHT22;37835;53.256;6.456;2023-02-05T15:00:25;7.80;99.90
51765;DHT22;37835;53.256;6.456;2023-02-05T15:02:55;7.80;99.90
51765;DHT22;37835;53.256;6.456;2023-02-05T15:07:56;7.70;99.90
51765;DHT22;37835;53.256;6.456;2023-02-05T15:10:24;7.70;99.90
51765;DHT22;37835;53.256;6.456;2023-02-05T15:13:02;7.60;99.90
51765;DHT22;37835;53.256;6.456;2023-02-05T15:15:33;7.60;99.90
51765;DHT22;37835;53.256;6.456;2023-02-05T15:18:03;7.60;99.90
51765;DHT22;37835;53.256;6.456;2023-02-05T15:20:30;7.60;99.90
51765;DHT22;37835;53.256;6.456;2023-02-05T15:23:05;7.50;99.90
51765;DHT22;37835;53.256;6.456;2023-02-05T15:25:35;7.50;99.90
51765;DHT22;37835;53.256;6.456;2023-02-05T15:28:03;7.40;99.90
51765;DHT22;37835;53.256;6.456;2023-02-05T15:30:31;7.40;99.90
51765;DHT22;37835;53.256;6.456;2023-02-05T15:33:02;7.40;99.90
51765;DHT22;37835;53.256;6.456;2023-02-05T15:35:29;7.30;99.90
51765;DHT22;37835;53.256;6.456;2023-02-05T15:37:59;7.30;99.90
51765;DHT22;37835;53.256;6.456;2023-02-05T15:42:57;7.40;99.90
51765;DHT22;37835;53.256;6.456;2023-02-05T15:45:26;7.10;99.90
51765;DHT22;37835;53.256;6.456;2023-02-05T15:48:02;7.00;99.90
51765;DHT22;37835;53.256;6.456;2023-02-05T15:50:29;7.00;99.90
51765;DHT22;37835;53.256;6.456;2023-02-05T15:52:55;7.00;99.90
51765;DHT22;37835;53.256;6.456;2023-02-05T15:55:21;6.90;99.90
51765;DHT22;37835;53.256;6.456;2023-02-05T15:57:49;6.90;99.90
51765;DHT22;37835;53.256;6.456;2023-02-05T16:00:18;6.90;99.90
51765;DHT22;37835;53.256;6.456;2023-02-05T16:02:56;6.80;99.90
51765;DHT22;37835;53.256;6.456;2023-02-05T16:05:22;6.70;99.90
51765;DHT22;37835;53.256;6.456;2023-02-05T16:07:48;6.60;99.90
51765;DHT22;37835;53.256;6.456;2023-02-05T16:10:22;6.60;99.90
51765;DHT22;37835;53.256;6.456;2023-02-05T16:15:23;6.50;99.90
51765;DHT22;37835;53.256;6.456;2023-02-05T16:17:49;6.50;99.90
51765;DHT22;37835;53.256;6.456;2023-02-05T16:22:42;6.80;99.90
51765;DHT22;37835;53.256;6.456;2023-02-05T16:27:53;6.30;99.90
51765;DHT22;37835;53.256;6.456;2023-02-05T16:30:21;6.20;99.90
51765;DHT22;37835;53.256;6.456;2023-02-05T16:32:52;6.20;99.90
51765;DHT22;37835;53.256;6.456;2023-02-05T16:35:21;6.20;99.90
51765;DHT22;37835;53.256;6.456;2023-02-05T16:37:49;6.20;99.90
51765;DHT22;37835;53.256;6.456;2023-02-05T16:40:15;6.10;99.90
51765;DHT22;37835;53.256;6.456;2023-02-05T16:42:52;6.10;99.90
51765;DHT22;37835;53.256;6.456;2023-02-05T16:45:19;6.00;99.90
51765;DHT22;37835;53.256;6.456;2023-02-05T16:50:34;6.00;99.90
51765;DHT22;37835;53.256;6.456;2023-02-05T16:53:01;5.90;99.90
51765;DHT22;37835;53.256;6.456;2023-02-05T16:57:55;5.80;99.90
51765;DHT22;37835;53.256;6.456;2023-02-05T17:00:26;5.80;99.90
51765;DHT22;37835;53.256;6.456;2023-02-05T17:02:57;5.80;99.90
51765;DHT22;37835;53.256;6.456;2023-02-05T17:05:24;5.70;99.90
51765;DHT22;37835;53.256;6.456;2023-02-05T17:07:54;5.70;99.90
51765;DHT22;37835;53.256;6.456;2023-02-05T17:10:20;5.70;99.90
51765;DHT22;37835;53.256;6.456;2023-02-05T17:12:50;5.60;99.90
51765;DHT22;37835;53.256;6.456;2023-02-05T17:20:18;5.50;99.90
51765;DHT22;37835;53.256;6.456;2023-02-05T17:25:40;5.50;99.90
51765;DHT22;37835;53.256;6.456;2023-02-05T17:28:12;5.40;99.90
51765;DHT22;37835;53.256;6.456;2023-02-05T17:30:39;5.40;99.90
51765;DHT22;37835;53.256;6.456;2023-02-05T17:33:05;5.30;99.90
51765;DHT22;37835;53.256;6.456;2023-02-05T17:35:31;5.30;99.90
51765;DHT22;37835;53.256;6.456;2023-02-05T17:37:58;5.30;99.90
51765;DHT22;37835;53.256;6.456;2023-02-05T17:40:23;5.30;99.90
51765;DHT22;37835;53.256;6.456;2023-02-05T17:42:49;4.80;99.90
51765;DHT22;37835;53.256;6.456;2023-02-05T17:47:43;5.20;99.90
51765;DHT22;37835;53.256;6.456;2023-02-05T17:50:09;5.20;99.90
51765;DHT22;37835;53.256;6.456;2023-02-05T17:52:35;5.10;99.90
51765;DHT22;37835;53.256;6.456;2023-02-05T17:55:00;5.10;99.90
51765;DHT22;37835;53.256;6.456;2023-02-05T17:57:26;5.10;99.90
51765;DHT22;37835;53.256;6.456;2023-02-05T17:59:51;5.10;99.90
51765;DHT22;37835;53.256;6.456;2023-02-05T18:02:17;5.00;99.90
51765;DHT22;37835;53.256;6.456;2023-02-05T18:04:42;5.00;99.90
51765;DHT22;37835;53.256;6.456;2023-02-05T18:10:14;5.00;99.90